Atlantic City Int. Airport (ACY)

 

Airport Diagram
Current Weather/Forecast (MVFR Conditions)
METAR KACY 282226Z 22004KT 10SM BKN024 19/16 A2998 RMK AO2 T01890161
TAF KACY 282041Z 2821/2918 24006KT P6SM SCT025 BKN060 FM290100 VRB05KT P6SM OVC020 FM290700 05004KT 4SM -RA OVC008 FM291100 02005KT 2SM RA OVC004

All Charts
General
Chart Name Download
AIRPORT DIAGRAM
TAKEOFF MINIMUMS
ALTERNATE MINIMUMS
RADAR MINIMUMS
HOT SPOT
LAHSO

Departures
Chart Name Download
ATLANTIC CITY TWO

Approaches
Chart Name Download
HI-ILS OR LOC RWY 13
ILS OR LOC RWY 13
ILS OR LOC/DME RWY 31
RNAV (RNP) Z RWY 13
RNAV (RNP) Z RWY 31
RNAV (GPS) RWY 04
RNAV (GPS) RWY 22
RNAV (GPS) Y RWY 13
RNAV (GPS) Y RWY 31
VOR/DME RWY 22
HI-VOR/DME OR TACAN RWY 31
VOR RWY 04
VOR RWY 13
VOR RWY 31
COPTER ILS OR LOC/DME RWY 13


Inbound Traffic (Arrivals)

No inbound traffic.


Outbound Traffic (Departures)

No outbound traffic.